Terminal Aerodrome Forecast
Issued by NWS

Home | Current Version | Previous Version | Text Only | Print | Product List | Glossary On
Versions: 1 2 3 4 5 6 7 8 9 10 11 12 13 14 15 16 17
278
FTUS44 KMAF 221720
TAFHOB
TAF
KHOB 221720Z 2218/2318 14015G25KT P6SM SCT045 SCT250
     FM230200 14015G25KT P6SM SCT200
     FM231000 13013KT P6SM OVC004
     FM231500 13015G25KT P6SM OVC009=

USA.gov is the U.S. government's official web portal to all federal, state and local government web resources and services.